Terminal Aerodrome Forecast
Issued by NWS Cleveland, OH

Home | Current Version | Previous Version | Graphics & Text | Print | Product List | Glossary Off
Versions: 1 2 3 4 5 6 7 8 9 10 11 12 13 14 15 16 17 18

000
FTUS41 KCLE 251131
TAFCAK
TAF
KCAK 251131Z 2512/2612 23008KT P6SM BKN100
     FM251500 24010KT P6SM VCSH BKN045 OVC100
     FM252000 26008KT P6SM SCT040 BKN150
     FM260700 30003KT 6SM BR SKC
      TEMPO 2609/2612 3SM BR=

USA.gov is the U.S. government's official web portal to all federal, state and local government web resources and services.